Terminal Aerodrome Forecast
Issued by NWS Newport/Morehead City, NC

Home | Current Version | Previous Version | Text Only | Print | Product List | Glossary Off
Versions: 1 2 3 4 5 6 7 8 9 10 11 12 13 14 15 16 17 18 19 20 21 22 23 24

000
FTUS42 KMHX 181100
TAFEWN
TAF
KEWN 181140Z 1812/1912 23006KT P6SM SCT050 BKN150
      TEMPO 1812/1813 5SM BR
     FM181800 21007KT P6SM VCTS SCT025 BKN050CB
     FM190300 20004KT P6SM VCSH SCT050 BKN100
     FM190600 22004KT P6SM SCT050 BKN100=

USA.gov is the U.S. government's official web portal to all federal, state and local government web resources and services.